Decoded Metar for LELL (SABADELL in SPAIN) (IATA:QSA) | Meteo·Mobile Aviation Weather
aviador You're here:

LELL Decoded Metar

SABADELL in SPAIN
Report Time2019-07-20 01:00:00
UTC Time2019-07-20 01:29:00
Flight Rules vfr VFR
Wind280° at 03 kt
W.Decomp.*RWY 31: 2.6 kt HW 1.5 kt LCW
Visibility9999 m
Phenomena:N/A
Clouds:N/A
Expected CloudBase > 400 ft AGL from Temp-Dew spread
CeilingNone
Temp21°C (ISA +7)
Dew Point20°C (94% RH)
QNH1015 hPa
Density Alt1,542 ft
Elevation485 ft
Report Wrong Elevation
Raw Report
LELL 200100Z AUTO 28003KT 9999 NCD 21/20 Q1015=

Extra information for LELL:More info

Metar Taf Metar & Taf Last 4 Metars F.Rules Stats Wind Profile Meteogram Temp Stats Airport Information Weather charts Add Link Nearby VenuesMetar ALERT Operation Metar Decoded Social comments

Aeroclub BS Web Page